Time;durP1;ratioP1;P1;durP2;ratioP2;P2;SDS_P1;SDS_P2;PMS_P1;PMS_P2;Temp;Humidity;BMP_temperature;BMP_pressure;BME280_temperature;BME280_humidity;BME280_pressure;Samples;Min_cycle;Max_cycle;Signal;HPM_P1;HPM_P2
2023/08/29 00:00:27;;;;;;;11.52;9.88;;;;;;;12.75;100.00;101073.72;5048615;28;20025;-69
2023/08/29 00:02:55;;;;;;;11.35;10.32;;;;;;;12.69;100.00;101072.28;5046512;28;20518;-70
2023/08/29 00:05:21;;;;;;;10.52;9.57;;;;;;;12.65;100.00;101063.56;5036452;28;20115;-70
2023/08/29 00:07:46;;;;;;;10.80;9.77;;;;;;;12.70;100.00;101068.66;5049273;28;20629;-68
2023/08/29 00:10:12;;;;;;;11.00;9.98;;;;;;;12.66;100.00;101061.75;5032535;28;20310;-68
2023/08/29 00:12:41;;;;;;;10.73;9.80;;;;;;;12.64;100.00;101061.84;5038864;28;20024;-69
2023/08/29 00:15:08;;;;;;;11.25;10.15;;;;;;;12.64;100.00;101056.53;5039502;28;20045;-68
2023/08/29 00:17:33;;;;;;;11.02;10.02;;;;;;;12.65;100.00;101062.72;5041384;28;20025;-70
2023/08/29 00:20:00;;;;;;;11.23;10.07;;;;;;;12.59;100.00;101055.06;5040347;28;20028;-69
2023/08/29 00:22:25;;;;;;;11.98;10.77;;;;;;;12.57;100.00;101044.44;5040953;28;20271;-69
2023/08/29 00:24:52;;;;;;;11.65;10.48;;;;;;;12.63;100.00;101051.28;5036317;28;20451;-69
2023/08/29 00:27:19;;;;;;;11.95;10.75;;;;;;;12.54;100.00;101055.31;5046928;28;20547;-69
2023/08/29 00:29:45;;;;;;;11.40;10.38;;;;;;;12.56;100.00;101044.53;5039946;28;20403;-69
2023/08/29 00:32:10;;;;;;;10.95;9.95;;;;;;;12.54;100.00;101049.09;5036064;28;20032;-71
2023/08/29 00:34:36;;;;;;;11.35;10.20;;;;;;;12.49;100.00;101043.16;5040962;28;20036;-70
2023/08/29 00:37:02;;;;;;;11.20;10.10;;;;;;;12.54;100.00;101049.97;5035529;28;20503;-70
2023/08/29 00:39:27;;;;;;;11.48;10.25;;;;;;;12.52;100.00;101051.00;5041035;28;20033;-68
2023/08/29 00:41:54;;;;;;;10.55;9.65;;;;;;;12.48;100.00;101044.97;5039707;28;20569;-69
2023/08/29 00:44:19;;;;;;;10.43;9.43;;;;;;;12.45;100.00;101037.13;5027536;28;20032;-68
2023/08/29 00:46:45;;;;;;;10.32;9.32;;;;;;;12.45;100.00;101048.66;5032638;28;20376;-69
2023/08/29 00:49:15;;;;;;;9.85;8.77;;;;;;;12.45;100.00;101043.31;5043040;28;20029;-68
2023/08/29 00:51:40;;;;;;;10.07;9.00;;;;;;;12.39;100.00;101042.81;5033522;28;20051;-69
2023/08/29 00:54:09;;;;;;;11.05;8.93;;;;;;;12.38;100.00;101052.63;5027134;28;20029;-69
2023/08/29 00:56:35;;;;;;;10.23;8.75;;;;;;;12.33;100.00;101048.47;5040825;28;20025;-70
2023/08/29 00:59:02;;;;;;;9.75;8.90;;;;;;;12.31;100.00;101050.38;5039662;28;20024;-68
2023/08/29 01:01:28;;;;;;;9.30;8.38;;;;;;;12.25;100.00;101051.59;5041583;28;20463;-70
2023/08/29 01:03:54;;;;;;;9.30;8.43;;;;;;;12.26;100.00;101047.97;5028882;28;20033;-69
2023/08/29 01:06:20;;;;;;;9.23;8.32;;;;;;;12.20;100.00;101037.59;5038868;28;20071;-68
2023/08/29 01:08:45;;;;;;;9.70;8.77;;;;;;;12.22;100.00;101046.41;5047407;28;20033;-69
2023/08/29 01:11:23;;;;;;;9.23;8.45;;;;;;;12.19;100.00;101041.22;5045590;28;20464;-68
2023/08/29 01:14:01;;;;;;;9.18;8.38;;;;;;;12.16;100.00;101046.72;5038016;28;20421;-67
2023/08/29 01:16:36;;;;;;;9.80;8.90;;;;;;;12.09;100.00;101037.34;5042869;28;20561;-67
2023/08/29 01:19:06;;;;;;;9.95;9.05;;;;;;;12.06;100.00;101027.69;5039188;28;20095;-68
2023/08/29 01:22:08;;;;;;;10.80;9.80;;;;;;;12.10;100.00;101039.91;5054652;28;20020;-69
2023/08/29 01:24:49;;;;;;;10.13;9.25;;;;;;;12.01;100.00;101032.41;5034776;28;20159;-69
2023/08/29 01:27:16;;;;;;;10.65;9.65;;;;;;;12.02;100.00;101041.28;5025876;28;20385;-68
2023/08/29 01:29:46;;;;;;;9.88;8.98;;;;;;;11.96;100.00;101039.81;5040917;28;20498;-68
2023/08/29 01:32:12;;;;;;;11.20;10.02;;;;;;;11.89;100.00;101031.25;5028818;28;20026;-67
2023/08/29 01:34:38;;;;;;;10.77;9.63;;;;;;;11.96;100.00;101031.81;5030667;28;20503;-69
2023/08/29 01:37:04;;;;;;;11.00;9.90;;;;;;;11.94;100.00;101029.22;5045270;28;20033;-68
2023/08/29 01:39:29;;;;;;;10.60;9.63;;;;;;;11.94;100.00;101031.88;5044860;28;20440;-68
2023/08/29 01:41:54;;;;;;;11.60;9.32;;;;;;;11.89;100.00;101041.94;5045737;28;20096;-69
2023/08/29 01:44:20;;;;;;;10.30;9.00;;;;;;;11.89;100.00;101041.06;5026222;28;20079;-69
2023/08/29 01:46:45;;;;;;;10.25;9.35;;;;;;;11.87;100.00;101033.16;5030316;28;20032;-67
2023/08/29 01:49:11;;;;;;;10.82;9.82;;;;;;;11.81;100.00;101036.13;5037641;28;20036;-68
2023/08/29 01:51:36;;;;;;;9.90;8.85;;;;;;;11.82;100.00;101037.81;5041690;28;20518;-69
2023/08/29 01:54:02;;;;;;;9.57;8.68;;;;;;;11.80;100.00;101038.88;5057306;28;20116;-69
2023/08/29 01:56:29;;;;;;;10.10;9.02;;;;;;;11.78;100.00;101044.25;5045017;28;20024;-68
2023/08/29 01:58:56;;;;;;;10.10;9.13;;;;;;;11.76;100.00;101047.97;5031649;28;20100;-69
2023/08/29 02:01:21;;;;;;;9.48;8.57;;;;;;;11.71;100.00;101045.56;5032198;28;20539;-70
2023/08/29 02:03:47;;;;;;;9.43;8.52;;;;;;;11.74;100.00;101053.38;5038536;28;20037;-69
2023/08/29 02:06:13;;;;;;;9.65;8.75;;;;;;;11.71;100.00;101056.22;5032679;28;20053;-69
2023/08/29 02:08:39;;;;;;;9.35;8.57;;;;;;;11.62;100.00;101056.66;5032583;28;20079;-69
2023/08/29 02:11:04;;;;;;;10.15;9.25;;;;;;;11.65;100.00;101064.53;5045610;28;20067;-69
2023/08/29 02:13:30;;;;;;;10.25;9.23;;;;;;;11.61;100.00;101058.47;5045192;28;20555;-69
2023/08/29 02:15:55;;;;;;;10.50;9.43;;;;;;;11.62;100.00;101056.66;5040030;28;20017;-68
2023/08/29 02:18:20;;;;;;;10.18;9.18;;;;;;;11.59;100.00;101060.38;5034677;28;20082;-69
2023/08/29 02:20:46;;;;;;;10.63;9.50;;;;;;;11.59;100.00;101065.72;5040602;28;20261;-69
2023/08/29 02:23:11;;;;;;;10.48;9.20;;;;;;;11.55;100.00;101068.63;5038292;28;20021;-69
2023/08/29 02:25:37;;;;;;;10.32;9.25;;;;;;;11.54;100.00;101066.91;5036996;28;20029;-68
2023/08/29 02:28:02;;;;;;;12.98;9.93;;;;;;;11.42;100.00;101063.91;5090130;22;20049;-81
2023/08/29 02:30:27;;;;;;;11.57;10.45;;;;;;;11.42;100.00;101063.91;5079290;28;20015;-81
2023/08/29 02:32:53;;;;;;;11.50;10.30;;;;;;;11.31;100.00;101060.91;5085669;28;20293;-82
2023/08/29 02:35:19;;;;;;;13.32;10.73;;;;;;;11.33;100.00;101069.72;5067228;28;20085;-82
2023/08/29 02:37:44;;;;;;;12.68;11.00;;;;;;;11.40;100.00;101087.09;5064780;28;20672;-81
2023/08/29 02:40:10;;;;;;;11.30;10.20;;;;;;;11.38;100.00;101083.66;5056688;28;20440;-82
2023/08/29 02:42:36;;;;;;;10.88;9.68;;;;;;;11.41;100.00;101101.28;5066097;28;20036;-82
2023/08/29 02:45:03;;;;;;;12.77;10.18;;;;;;;11.41;100.00;101102.16;5055128;28;20061;-82
2023/08/29 02:47:29;;;;;;;10.85;9.88;;;;;;;11.42;100.00;101103.88;5057454;28;20043;-82
2023/08/29 02:49:54;;;;;;;11.02;9.93;;;;;;;11.29;100.00;101080.59;5064525;28;20036;-82
2023/08/29 02:52:20;;;;;;;11.60;10.43;;;;;;;11.29;100.00;101085.94;5064449;28;20037;-82
2023/08/29 02:54:45;;;;;;;11.63;10.40;;;;;;;11.42;100.00;101103.03;5064263;28;20030;-82
2023/08/29 02:57:10;;;;;;;10.68;9.60;;;;;;;11.46;100.00;101116.13;5062647;28;20031;-83
2023/08/29 02:59:36;;;;;;;11.38;9.85;;;;;;;11.39;100.00;101104.03;5061798;28;20112;-83
2023/08/29 03:02:03;;;;;;;10.75;9.75;;;;;;;11.42;100.00;101121.69;5058551;28;20035;-82
2023/08/29 03:04:29;;;;;;;10.57;9.57;;;;;;;11.41;100.00;101123.50;5063249;28;20048;-82
2023/08/29 03:06:54;;;;;;;11.68;10.63;;;;;;;11.41;100.00;101102.16;5062929;28;20395;-82
2023/08/29 03:09:20;;;;;;;10.98;9.88;;;;;;;11.42;100.00;101108.34;5063577;28;20024;-82
2023/08/29 03:11:45;;;;;;;10.93;9.93;;;;;;;11.38;100.00;101101.47;5078802;28;20036;-82
2023/08/29 03:14:11;;;;;;;11.07;9.93;;;;;;;11.40;100.00;101108.41;5062640;28;20032;-81
2023/08/29 03:16:36;;;;;;;11.13;10.02;;;;;;;11.39;100.00;101106.69;5064576;28;20020;-82
2023/08/29 03:19:02;;;;;;;11.65;10.48;;;;;;;11.46;100.00;101104.59;5080168;28;20482;-82
2023/08/29 03:21:28;;;;;;;11.10;10.00;;;;;;;11.31;100.00;101076.91;5077907;28;20039;-82
2023/08/29 03:23:53;;;;;;;11.05;9.95;;;;;;;11.38;100.00;101089.00;5064757;28;20595;-82
2023/08/29 03:26:19;;;;;;;11.00;9.95;;;;;;;11.45;100.00;101097.53;5065190;28;20110;-83
2023/08/29 03:28:45;;;;;;;10.95;9.85;;;;;;;11.47;100.00;101085.84;5064816;28;20094;-82
2023/08/29 03:31:16;;;;;;;10.90;9.80;;;;;;;11.43;100.00;101089.59;5079130;28;20503;-82
2023/08/29 03:33:45;;;;;;;11.52;10.48;;;;;;;11.40;100.00;101078.25;5065685;28;20074;-81
2023/08/29 03:36:10;;;;;;;11.45;10.35;;;;;;;11.42;100.00;101071.03;5067027;28;20025;-82
2023/08/29 03:38:38;;;;;;;11.48;10.43;;;;;;;11.35;100.00;101070.47;5069252;28;20360;-82
2023/08/29 03:41:04;;;;;;;11.25;10.25;;;;;;;11.33;100.00;101061.72;5061647;28;20060;-82
2023/08/29 03:43:31;;;;;;;12.10;9.45;;;;;;;11.31;100.00;101063.56;5066737;28;20100;-82
2023/08/29 03:45:56;;;;;;;10.88;9.88;;;;;;;11.28;100.00;101049.53;5057714;28;20024;-82
2023/08/29 03:48:22;;;;;;;10.82;9.75;;;;;;;11.25;100.00;101060.38;5078524;28;20032;-82
2023/08/29 03:50:48;;;;;;;12.20;9.52;;;;;;;11.18;100.00;101041.16;5067324;28;20037;-82
2023/08/29 03:53:14;;;;;;;10.77;9.65;;;;;;;11.13;100.00;101051.19;5059202;28;20581;-82
2023/08/29 03:55:39;;;;;;;11.20;10.05;;;;;;;11.07;100.00;101038.16;5063329;28;20103;-82
2023/08/29 03:58:06;;;;;;;12.00;9.88;;;;;;;11.07;100.00;101041.69;5061008;28;20436;-82
2023/08/29 04:00:32;;;;;;;11.13;9.82;;;;;;;11.06;100.00;101044.44;5053861;28;20021;-81
2023/08/29 04:02:59;;;;;;;10.30;9.30;;;;;;;11.01;100.00;101041.16;5061780;28;20233;-82
2023/08/29 04:05:25;;;;;;;10.98;9.88;;;;;;;11.03;100.00;101039.25;5060354;28;20120;-82
2023/08/29 04:07:51;;;;;;;10.15;9.10;;;;;;;10.98;100.00;101032.34;5057713;28;20703;-82
2023/08/29 04:10:16;;;;;;;9.90;8.88;;;;;;;10.88;100.00;101028.44;5058501;28;20050;-82
2023/08/29 04:12:42;;;;;;;10.65;9.65;;;;;;;10.86;100.00;101030.28;5060917;28;20028;-82
2023/08/29 04:15:08;;;;;;;11.20;10.10;;;;;;;10.82;100.00;101011.88;5076096;28;20375;-83
2023/08/29 04:17:33;;;;;;;11.07;10.00;;;;;;;10.86;100.00;101027.63;5064532;28;20074;-83
2023/08/29 04:20:00;;;;;;;11.07;9.60;;;;;;;10.84;100.00;101026.00;5066531;28;20036;-80
2023/08/29 04:22:25;;;;;;;10.80;9.80;;;;;;;10.76;100.00;101025.50;5081370;28;20040;-81
2023/08/29 04:24:50;;;;;;;10.10;9.13;;;;;;;10.80;100.00;101019.94;5062670;28;20025;-82
2023/08/29 04:27:16;;;;;;;10.60;9.52;;;;;;;10.80;100.00;101019.09;5060531;28;20125;-81
2023/08/29 04:29:42;;;;;;;10.98;9.93;;;;;;;10.78;100.00;101015.63;5062889;28;20029;-81
2023/08/29 04:32:07;;;;;;;11.10;10.00;;;;;;;10.73;100.00;101013.19;5049222;28;20056;-81
2023/08/29 04:34:33;;;;;;;11.13;10.02;;;;;;;10.78;100.00;101028.94;5073480;28;21027;-83
2023/08/29 04:36:58;;;;;;;10.73;9.55;;;;;;;10.78;100.00;101027.13;5059588;28;20032;-82
2023/08/29 04:39:24;;;;;;;10.95;9.85;;;;;;;10.79;100.00;101022.69;5078548;28;20525;-82
2023/08/29 04:41:50;;;;;;;12.63;11.32;;;;;;;10.82;100.00;101023.38;5059626;28;20032;-82
2023/08/29 04:44:15;;;;;;;12.02;10.82;;;;;;;10.79;100.00;101004.06;5058337;28;20394;-81
2023/08/29 04:46:41;;;;;;;11.85;10.65;;;;;;;10.83;100.00;101018.94;5082623;28;20017;-82
2023/08/29 04:49:06;;;;;;;12.73;11.45;;;;;;;10.75;100.00;101003.34;5066974;28;20032;-81
2023/08/29 04:51:34;;;;;;;14.68;13.00;;;;;;;10.91;100.00;101014.09;5068538;28;20429;-81
2023/08/29 04:54:00;;;;;;;14.25;12.85;;;;;;;10.95;100.00;101016.53;5085656;28;20070;-81
2023/08/29 04:56:25;;;;;;;14.40;12.90;;;;;;;10.97;100.00;101019.13;5070839;28;20351;-81
2023/08/29 04:58:51;;;;;;;15.00;13.60;;;;;;;10.93;100.00;101012.22;5079191;28;20103;-81
2023/08/29 05:01:16;;;;;;;15.02;13.25;;;;;;;10.98;100.00;101018.19;5066119;28;20026;-82
2023/08/29 05:03:42;;;;;;;13.77;12.35;;;;;;;10.95;100.00;101019.22;5057648;28;20021;-81
2023/08/29 05:06:07;;;;;;;14.82;12.98;;;;;;;10.99;100.00;101009.25;5075268;28;20032;-81
2023/08/29 05:08:34;;;;;;;13.88;12.48;;;;;;;10.96;100.00;101014.75;5066693;28;20024;-82
2023/08/29 05:11:01;;;;;;;16.13;14.13;;;;;;;11.05;100.00;101032.06;5057427;28;20135;-81
2023/08/29 05:13:26;;;;;;;16.92;15.23;;;;;;;11.08;100.00;101032.78;5062816;28;20016;-81
2023/08/29 05:15:52;;;;;;;15.07;13.48;;;;;;;11.11;100.00;101032.59;5065384;28;20482;-83
2023/08/29 05:18:17;;;;;;;14.63;12.77;;;;;;;11.12;100.00;101028.13;5062701;28;20044;-83
2023/08/29 05:20:43;;;;;;;16.40;14.68;;;;;;;11.18;100.00;101027.84;5051715;28;20096;-83
2023/08/29 05:23:09;;;;;;;15.43;13.75;;;;;;;11.20;100.00;101018.84;5062349;28;20254;-82
2023/08/29 05:25:34;;;;;;;15.35;13.75;;;;;;;11.24;100.00;101019.53;5054469;28;20511;-83
2023/08/29 05:28:00;;;;;;;16.05;14.45;;;;;;;11.28;100.00;101031.75;5057128;28;20422;-84
2023/08/29 05:30:25;;;;;;;15.50;13.55;;;;;;;11.26;100.00;101022.97;5068285;28;20024;-83
2023/08/29 05:32:50;;;;;;;15.10;13.65;;;;;;;11.34;100.00;101027.94;5067838;28;20123;-83
2023/08/29 05:35:16;;;;;;;15.98;13.75;;;;;;;11.38;100.00;101029.50;5064452;28;20081;-83
2023/08/29 05:37:41;;;;;;;15.88;14.18;;;;;;;11.43;100.00;101030.13;5062924;28;20037;-83
2023/08/29 05:40:08;;;;;;;15.15;13.70;;;;;;;11.46;100.00;101032.63;5080544;28;20436;-83
2023/08/29 05:42:34;;;;;;;14.75;13.25;;;;;;;11.52;100.00;101036.78;5068860;28;20067;-83
2023/08/29 05:44:59;;;;;;;15.10;13.50;;;;;;;11.54;100.00;101032.25;5071590;28;20051;-84
2023/08/29 05:47:25;;;;;;;15.05;13.60;;;;;;;11.59;100.00;101036.38;5070085;28;20462;-84
2023/08/29 05:49:50;;;;;;;15.65;13.85;;;;;;;11.62;100.00;101030.00;5072965;28;20632;-82
2023/08/29 05:52:16;;;;;;;16.40;14.77;;;;;;;11.72;100.00;101041.94;5071693;28;20020;-85
2023/08/29 05:54:43;;;;;;;17.10;15.20;;;;;;;11.76;100.00;101035.50;5075153;28;20475;-85
2023/08/29 05:57:08;;;;;;;15.10;13.63;;;;;;;11.81;100.00;101029.91;5063571;28;20025;-84
2023/08/29 05:59:33;;;;;;;16.50;14.70;;;;;;;11.84;100.00;101024.47;5079189;28;20603;-85
2023/08/29 06:01:59;;;;;;;16.67;14.98;;;;;;;11.89;100.00;101030.41;5067895;28;20037;-84
2023/08/29 06:04:24;;;;;;;16.83;14.55;;;;;;;11.90;100.00;101027.66;5067111;28;20498;-85
2023/08/29 06:06:50;;;;;;;17.42;14.38;;;;;;;12.03;100.00;101025.19;5062443;28;20032;-84
2023/08/29 06:09:16;;;;;;;15.85;14.27;;;;;;;12.14;100.00;101035.28;5062389;28;20410;-83
2023/08/29 06:11:42;;;;;;;16.23;14.02;;;;;;;12.20;100.00;101037.59;5080726;28;20031;-85
2023/08/29 06:14:07;;;;;;;15.95;14.45;;;;;;;12.29;100.00;101036.25;5069583;28;20016;-83
2023/08/29 06:16:33;;;;;;;16.50;14.20;;;;;;;12.40;100.00;101040.03;5049916;28;20037;-84
2023/08/29 06:18:58;;;;;;;15.48;13.75;;;;;;;12.56;100.00;101041.88;5059004;28;20036;-83
2023/08/29 06:21:23;;;;;;;15.63;14.00;;;;;;;12.67;100.00;101044.81;5052543;28;20059;-83
2023/08/29 06:23:49;;;;;;;15.57;13.88;;;;;;;12.81;100.00;101044.88;5064025;28;20028;-83
2023/08/29 06:26:15;;;;;;;16.55;14.70;;;;;;;12.95;100.00;101044.94;5064786;28;20068;-82
2023/08/29 06:28:41;;;;;;;16.05;14.20;;;;;;;12.96;100.00;101044.00;5062739;28;20036;-83
2023/08/29 06:31:09;;;;;;;14.45;12.95;;;;;;;13.06;100.00;101032.78;5064890;28;20122;-82
2023/08/29 06:33:36;;;;;;;15.02;13.50;;;;;;;13.09;100.00;101036.16;5064653;28;20032;-82
2023/08/29 06:36:02;;;;;;;15.60;13.95;;;;;;;13.13;100.00;101024.31;5059946;28;20017;-83
2023/08/29 06:38:28;;;;;;;14.80;13.20;;;;;;;13.25;100.00;101033.47;5070877;28;20118;-83
2023/08/29 06:40:58;;;;;;;14.68;13.18;;;;;;;13.36;100.00;101041.69;5063504;28;20039;-84
2023/08/29 06:43:25;;;;;;;15.90;14.25;;;;;;;13.46;100.00;101042.03;5063950;28;20101;-81
2023/08/29 06:45:50;;;;;;;14.63;13.13;;;;;;;13.55;100.00;101029.94;5062384;28;20028;-83
2023/08/29 06:48:16;;;;;;;13.73;12.43;;;;;;;13.62;100.00;101029.44;5064298;28;20074;-81
2023/08/29 06:50:42;;;;;;;14.40;12.90;;;;;;;13.76;100.00;101033.97;5064351;28;20024;-83
2023/08/29 06:53:07;;;;;;;14.13;12.70;;;;;;;13.87;100.00;101020.78;5056818;28;20029;-84
2023/08/29 06:55:34;;;;;;;14.45;12.95;;;;;;;14.06;100.00;101030.34;5074116;28;20027;-84
2023/08/29 06:58:00;;;;;;;13.88;12.38;;;;;;;14.10;100.00;101034.56;5064717;28;20028;-86
2023/08/29 07:00:26;;;;;;;13.32;11.57;;;;;;;14.25;100.00;101036.25;5081852;28;20490;-85
2023/08/29 07:02:51;;;;;;;12.85;11.38;;;;;;;14.40;100.00;101023.72;5063711;28;20078;-83
2023/08/29 07:05:17;;;;;;;12.27;11.00;;;;;;;14.45;100.00;101019.78;5077015;28;20107;-85
2023/08/29 07:07:43;;;;;;;12.93;11.63;;;;;;;14.60;100.00;101027.84;5053119;28;20051;-82
2023/08/29 07:10:09;;;;;;;11.88;10.68;;;;;;;14.80;100.00;101021.19;5070129;28;20016;-84
2023/08/29 07:12:35;;;;;;;12.43;11.23;;;;;;;15.08;100.00;101026.41;5068793;28;20066;-84
2023/08/29 07:15:01;;;;;;;11.38;10.35;;;;;;;15.42;100.00;101022.34;5056579;28;20573;-84
2023/08/29 07:17:27;;;;;;;11.48;10.38;;;;;;;15.76;100.00;101025.41;5060022;28;20040;-83
2023/08/29 07:19:52;;;;;;;11.45;10.30;;;;;;;15.98;100.00;101026.59;5058730;28;20032;-84
2023/08/29 07:22:18;;;;;;;9.50;8.45;;;;;;;16.24;100.00;101040.84;5063955;28;20032;-83
2023/08/29 07:24:44;;;;;;;8.52;7.72;;;;;;;16.39;100.00;101045.97;5063527;28;20092;-83
2023/08/29 07:27:09;;;;;;;8.88;7.95;;;;;;;16.53;100.00;101049.47;5065626;28;20036;-82
2023/08/29 07:29:34;;;;;;;9.30;8.38;;;;;;;16.71;100.00;101058.03;5063386;28;20024;-86
2023/08/29 07:32:00;;;;;;;8.40;7.65;;;;;;;16.82;100.00;101042.88;5061084;28;20024;-80
2023/08/29 07:34:25;;;;;;;8.88;7.80;;;;;;;16.94;100.00;101046.47;5060534;28;20035;-81
2023/08/29 07:36:51;;;;;;;9.50;7.90;;;;;;;17.20;100.00;101049.06;5067916;28;20024;-82
2023/08/29 07:39:18;;;;;;;8.70;7.80;;;;;;;17.46;100.00;101042.53;5069773;28;20290;-80
2023/08/29 07:41:45;;;;;;;8.20;7.40;;;;;;;17.72;100.00;101043.22;5068465;28;20498;-79
2023/08/29 07:44:10;;;;;;;8.82;7.88;;;;;;;18.02;100.00;101039.16;5063790;28;20033;-79
2023/08/29 07:46:36;;;;;;;9.55;7.93;;;;;;;18.28;100.00;101051.41;5065068;28;20024;-80
2023/08/29 07:49:01;;;;;;;7.50;6.80;;;;;;;18.58;100.00;101047.22;5065468;28;20246;-80
2023/08/29 07:51:27;;;;;;;7.25;6.53;;;;;;;18.66;100.00;101050.13;5059849;28;20036;-79
2023/08/29 07:53:52;;;;;;;7.18;6.57;;;;;;;18.64;96.88;101035.91;5048949;28;20041;-79
2023/08/29 07:56:18;;;;;;;7.30;6.68;;;;;;;18.56;95.33;101047.34;5065439;28;20389;-80
2023/08/29 07:58:43;;;;;;;7.55;6.68;;;;;;;18.73;92.57;101051.41;5063097;28;20037;-80
2023/08/29 08:01:09;;;;;;;7.68;6.75;;;;;;;18.66;95.24;101053.69;5065723;28;20467;-80
2023/08/29 08:03:34;;;;;;;8.00;7.20;;;;;;;18.65;97.23;101040.34;5060253;28;20035;-80
2023/08/29 08:06:00;;;;;;;7.43;6.72;;;;;;;18.72;97.78;101046.97;5051385;28;20021;-80
2023/08/29 08:08:25;;;;;;;7.93;6.53;;;;;;;18.90;95.46;101050.84;5061548;28;20024;-80
2023/08/29 08:10:51;;;;;;;8.30;6.60;;;;;;;19.11;91.91;101050.06;5060185;28;20024;-80
2023/08/29 08:13:16;;;;;;;7.07;6.38;;;;;;;19.29;90.63;101051.22;5069001;28;20119;-80
2023/08/29 08:15:42;;;;;;;6.72;6.03;;;;;;;19.34;88.84;101048.97;5064492;28;20024;-80
2023/08/29 08:18:08;;;;;;;6.72;6.10;;;;;;;19.36;88.72;101044.31;5063056;28;20075;-81
2023/08/29 08:20:34;;;;;;;6.72;6.13;;;;;;;19.32;92.40;101042.84;5050907;28;20025;-81
2023/08/29 08:22:59;;;;;;;7.78;7.00;;;;;;;19.26;91.10;101050.59;5057237;28;20021;-81
2023/08/29 08:25:25;;;;;;;7.82;7.03;;;;;;;19.16;90.18;101053.22;5042881;28;20466;-81
2023/08/29 08:27:51;;;;;;;8.52;7.63;;;;;;;19.01;93.20;101051.78;5052890;28;20125;-81
2023/08/29 08:30:16;;;;;;;8.85;7.68;;;;;;;19.06;94.26;101060.34;5062248;28;20399;-81
2023/08/29 08:32:43;;;;;;;8.15;7.43;;;;;;;19.15;93.90;101068.56;5048792;28;20467;-80
2023/08/29 08:35:09;;;;;;;10.90;7.95;;;;;;;19.15;92.22;101060.47;5063617;28;20028;-81
2023/08/29 08:37:35;;;;;;;10.65;8.63;;;;;;;19.10;90.57;101062.69;5065257;28;20033;-80
2023/08/29 08:40:09;;;;;;;9.95;8.55;;;;;;;19.06;90.03;101063.94;5075760;28;20031;-80
2023/08/29 08:42:34;;;;;;;;;;;;;;;19.45;93.89;101058.88;5082703;28;20033;-80
2023/08/29 08:45:04;;;;;;;9.80;7.30;;;;;;;19.02;88.63;101048.09;5083365;28;19912;-80
2023/08/29 08:47:30;;;;;;;8.65;7.78;;;;;;;19.15;90.42;101051.53;5069783;28;20025;-80
2023/08/29 08:49:55;;;;;;;8.00;6.90;;;;;;;19.27;90.40;101047.78;5064605;28;20492;-81
2023/08/29 08:52:20;;;;;;;7.97;7.18;;;;;;;19.28;87.00;101052.19;5073642;28;20036;-81
2023/08/29 08:54:46;;;;;;;8.68;6.72;;;;;;;19.30;85.85;101047.50;5075322;28;20029;-80
2023/08/29 08:57:13;;;;;;;9.50;7.18;;;;;;;19.42;88.58;101059.97;5065244;28;20032;-80
2023/08/29 08:59:39;;;;;;;8.65;6.47;;;;;;;19.38;80.93;101045.03;5077445;28;20391;-81
2023/08/29 09:02:09;;;;;;;7.80;6.63;;;;;;;19.46;82.75;101051.63;5069773;28;20036;-80
2023/08/29 09:04:34;;;;;;;7.35;6.55;;;;;;;19.44;83.20;101054.47;5055854;28;20031;-81
2023/08/29 09:07:00;;;;;;;8.45;6.57;;;;;;;19.50;87.24;101048.53;5061924;28;20028;-81
2023/08/29 09:09:25;;;;;;;8.95;7.80;;;;;;;19.59;86.01;101047.75;5060684;28;20029;-81
2023/08/29 09:11:55;;;;;;;10.63;8.23;;;;;;;19.70;86.08;101054.13;5054030;28;20167;-81
2023/08/29 09:14:25;;;;;;;7.55;6.75;;;;;;;19.60;86.39;101044.03;5062201;28;20096;-81
2023/08/29 09:16:56;;;;;;;8.20;7.20;;;;;;;19.52;85.17;101048.38;5066629;28;20032;-81
2023/08/29 09:19:22;;;;;;;8.43;6.90;;;;;;;19.69;87.42;101047.84;5059171;28;20028;-81
2023/08/29 09:21:48;;;;;;;7.35;5.60;;;;;;;19.80;84.63;101057.72;5072655;28;20078;-81
2023/08/29 09:24:21;;;;;;;8.32;5.82;;;;;;;19.66;79.91;101056.22;5070675;28;20024;-79
2023/08/29 09:26:46;;;;;;;7.13;6.20;;;;;;;19.67;80.40;101052.53;5060280;28;20138;-80
2023/08/29 09:29:19;;;;;;;6.45;5.75;;;;;;;19.97;84.15;101050.84;5065215;28;20052;-80
2023/08/29 09:31:48;;;;;;;5.40;4.90;;;;;;;20.27;81.45;101058.97;5047810;28;20226;-80
2023/08/29 09:34:27;;;;;;;5.18;4.65;;;;;;;20.75;81.29;101060.19;5065412;28;20074;-81
2023/08/29 09:36:54;;;;;;;5.32;4.65;;;;;;;21.18;77.97;101061.66;5067057;28;20134;-80
2023/08/29 09:39:20;;;;;;;6.22;5.07;;;;;;;21.70;77.92;101046.88;5067090;28;20024;-81
2023/08/29 09:42:10;;;;;;;6.03;5.05;;;;;;;22.59;76.21;101050.00;5069212;28;20034;-80
2023/08/29 09:44:37;;;;;;;6.65;4.90;;;;;;;23.15;67.50;101047.22;5064514;28;20043;-80
2023/08/29 09:47:08;;;;;;;5.95;5.07;;;;;;;23.02;68.01;101051.19;5074410;28;20044;-80
2023/08/29 09:49:43;;;;;;;5.10;4.60;;;;;;;23.36;66.78;101047.78;5085696;28;20078;-80
2023/08/29 09:52:10;;;;;;;5.50;4.43;;;;;;;23.35;63.12;101038.78;5069064;28;20013;-80
2023/08/29 09:54:47;;;;;;;6.47;4.68;;;;;;;23.55;62.10;101044.03;5064714;28;20470;-80
2023/08/29 09:57:14;;;;;;;5.20;4.40;;;;;;;23.69;62.60;101038.06;5053212;28;20072;-80
2023/08/29 09:59:42;;;;;;;5.70;4.53;;;;;;;23.94;60.25;101038.22;5054901;28;20074;-80
2023/08/29 10:02:13;;;;;;;5.80;4.43;;;;;;;23.25;62.62;101045.31;5065714;28;20104;-80
2023/08/29 10:04:45;;;;;;;4.63;4.10;;;;;;;23.19;64.17;101038.63;5062840;28;20017;-80
2023/08/29 10:07:17;;;;;;;5.63;4.60;;;;;;;22.96;63.23;101042.81;5061044;28;20510;-80
2023/08/29 10:09:43;;;;;;;5.00;4.38;;;;;;;22.53;63.05;101034.34;5060045;28;20174;-80
2023/08/29 10:12:09;;;;;;;5.40;4.65;;;;;;;22.20;64.35;101033.06;5056339;28;20032;-81
2023/08/29 10:14:36;;;;;;;4.68;4.10;;;;;;;21.85;64.73;101023.72;5079219;28;20043;-80
2023/08/29 10:17:02;;;;;;;3.88;2.58;;;;;;;21.64;65.09;101032.03;5046718;28;20059;-80
2023/08/29 10:19:32;;;;;;;3.15;2.50;;;;;;;21.46;65.40;101035.63;5058490;28;20028;-80
2023/08/29 10:21:58;;;;;;;3.60;1.95;;;;;;;21.33;65.00;101031.34;5054674;28;20048;-81
2023/08/29 10:24:26;;;;;;;3.08;2.47;;;;;;;21.21;65.44;101031.63;5063387;28;20068;-81
2023/08/29 10:26:52;;;;;;;2.63;2.38;;;;;;;21.01;67.74;101038.84;5049330;28;20083;-80
2023/08/29 10:29:17;;;;;;;2.72;1.95;;;;;;;20.82;68.67;101043.25;5053067;28;20028;-80
2023/08/29 10:31:44;;;;;;;2.75;1.60;;;;;;;20.78;66.19;101033.72;5052767;28;20028;-81
2023/08/29 10:34:10;;;;;;;4.47;1.60;;;;;;;20.63;67.49;101035.09;5066074;28;20027;-80
2023/08/29 10:36:38;;;;;;;2.35;1.60;;;;;;;20.64;70.64;101029.53;5053582;28;20033;-80
2023/08/29 10:39:04;;;;;;;2.10;1.80;;;;;;;20.60;70.54;101030.81;5054386;28;20036;-80
2023/08/29 10:41:47;;;;;;;2.85;2.10;;;;;;;20.56;69.28;101031.22;5067697;28;20052;-80
2023/08/29 10:44:45;;;;;;;2.85;1.90;;;;;;;20.69;72.71;101029.09;5072783;28;20069;-81
2023/08/29 10:47:20;;;;;;;2.47;1.60;;;;;;;20.51;70.62;101036.19;5008761;28;20040;-80
2023/08/29 10:49:47;;;;;;;2.35;1.80;;;;;;;20.75;70.85;101031.28;5067851;28;20028;-80
2023/08/29 10:52:13;;;;;;;2.95;2.03;;;;;;;20.78;68.69;101025.59;5064852;28;20032;-81
2023/08/29 10:54:40;;;;;;;3.22;2.05;;;;;;;20.95;69.13;101015.94;5067995;28;20346;-80
2023/08/29 10:57:27;;;;;;;3.30;2.00;;;;;;;21.36;68.67;101011.25;5059023;28;20032;-81
2023/08/29 10:59:53;;;;;;;2.00;1.70;;;;;;;21.38;67.95;101010.13;5069069;28;20033;-80
2023/08/29 11:02:30;;;;;;;2.97;1.80;;;;;;;21.80;70.14;101012.47;5055408;28;20070;-80
2023/08/29 11:05:04;;;;;;;2.83;1.80;;;;;;;22.05;65.29;101010.97;5069362;28;20020;-81
2023/08/29 11:07:31;;;;;;;2.35;1.70;;;;;;;22.22;61.54;100998.50;5068096;28;20021;-80
2023/08/29 11:10:22;;;;;;;2.67;2.17;;;;;;;22.60;64.27;101007.44;5064079;28;20375;-80